createdAt,value
2023-06-19T00:01:10.580Z,17.10
2023-06-19T00:03:41.265Z,17.11
2023-06-19T00:06:08.512Z,17.07
2023-06-19T00:08:37.363Z,17.06
2023-06-19T00:11:04.689Z,17.04
2023-06-19T00:13:31.562Z,17.00
2023-06-19T00:16:01.445Z,16.99
2023-06-19T00:18:29.420Z,16.96
2023-06-19T00:20:57.352Z,16.94
2023-06-19T00:23:24.599Z,16.90
2023-06-19T00:25:51.791Z,16.87
2023-06-19T00:28:21.043Z,16.87
2023-06-19T00:30:48.485Z,16.87
2023-06-19T00:33:15.354Z,16.85
2023-06-19T00:35:42.788Z,16.87
2023-06-19T00:38:10.062Z,16.84
2023-06-19T00:40:37.503Z,16.82
2023-06-19T00:43:04.625Z,16.79
2023-06-19T00:45:32.305Z,16.78
2023-06-19T00:48:00.671Z,16.75
2023-06-19T00:50:33.214Z,16.70
2023-06-19T00:53:03.645Z,16.67
2023-06-19T00:55:31.768Z,16.64
2023-06-19T00:58:00.394Z,16.61
2023-06-19T01:00:27.865Z,16.58
2023-06-19T01:02:54.853Z,16.54
2023-06-19T01:05:22.225Z,16.52
2023-06-19T01:07:51.891Z,16.51
2023-06-19T01:10:23.167Z,16.50
2023-06-19T01:13:14.570Z,16.47
2023-06-19T01:15:43.423Z,16.44
2023-06-19T01:18:12.816Z,16.43
2023-06-19T01:20:40.136Z,16.41
2023-06-19T01:23:11.036Z,16.38
2023-06-19T01:25:38.984Z,16.37
2023-06-19T01:28:10.908Z,16.34
2023-06-19T01:30:39.772Z,16.33
2023-06-19T01:33:24.416Z,16.31
2023-06-19T01:35:52.022Z,16.32
2023-06-19T01:38:22.078Z,16.33
2023-06-19T01:40:56.310Z,16.30
2023-06-19T01:43:24.673Z,16.29
2023-06-19T01:45:51.977Z,16.30
2023-06-19T01:48:19.009Z,16.28
2023-06-19T01:50:50.039Z,16.25
2023-06-19T01:53:17.218Z,16.24
2023-06-19T01:55:44.701Z,16.21
2023-06-19T01:58:11.560Z,16.18
2023-06-19T02:00:38.756Z,16.15
2023-06-19T02:03:06.203Z,16.13
2023-06-19T02:05:35.408Z,16.12
2023-06-19T02:08:02.273Z,16.08
2023-06-19T02:10:29.391Z,16.08
2023-06-19T02:12:56.290Z,16.05
2023-06-19T02:15:23.420Z,16.02
2023-06-19T02:17:56.248Z,15.99
2023-06-19T02:20:25.813Z,15.95
2023-06-19T02:22:53.041Z,15.97
2023-06-19T02:25:20.562Z,15.99
2023-06-19T02:27:47.394Z,15.94
2023-06-19T02:30:14.857Z,15.92
2023-06-19T02:32:41.779Z,15.92
2023-06-19T02:35:11.479Z,15.86
2023-06-19T02:37:38.569Z,15.77
2023-06-19T02:40:07.546Z,15.78
2023-06-19T02:42:34.525Z,15.74
2023-06-19T02:45:04.465Z,15.72
2023-06-19T02:47:32.753Z,15.71
2023-06-19T02:50:00.795Z,15.68
2023-06-19T02:52:28.525Z,15.62
2023-06-19T02:54:55.797Z,15.57
2023-06-19T02:57:22.767Z,15.59
2023-06-19T02:59:50.589Z,15.59
2023-06-19T03:02:17.490Z,15.60
2023-06-19T03:04:47.753Z,15.58
2023-06-19T03:07:17.826Z,15.58
2023-06-19T03:09:45.077Z,15.58
2023-06-19T03:12:11.983Z,15.58
2023-06-19T03:14:39.187Z,15.59
2023-06-19T03:17:06.350Z,15.59
2023-06-19T03:19:33.601Z,15.62
2023-06-19T03:22:00.454Z,15.65
2023-06-19T03:24:27.727Z,15.60
2023-06-19T03:26:54.704Z,15.61
2023-06-19T03:29:22.190Z,15.65
2023-06-19T03:31:49.134Z,15.70
2023-06-19T03:34:16.293Z,15.80
2023-06-19T03:36:43.242Z,15.90
2023-06-19T03:39:10.364Z,15.96
2023-06-19T03:41:37.195Z,16.05
2023-06-19T03:44:04.572Z,16.19
2023-06-19T03:46:31.455Z,16.30
2023-06-19T03:48:58.645Z,16.30
2023-06-19T03:51:25.556Z,16.27
2023-06-19T03:53:52.781Z,16.31
2023-06-19T03:56:19.674Z,16.32
2023-06-19T03:58:46.836Z,16.33
2023-06-19T04:01:13.774Z,16.36
2023-06-19T04:03:42.253Z,16.38
2023-06-19T04:06:09.452Z,16.40
2023-06-19T04:08:36.595Z,16.45
2023-06-19T04:11:03.506Z,16.47
2023-06-19T04:13:30.817Z,16.50
2023-06-19T04:15:57.810Z,16.53
2023-06-19T04:18:25.067Z,16.53
2023-06-19T04:20:52.010Z,16.56
2023-06-19T04:23:19.217Z,16.64
2023-06-19T04:25:46.093Z,16.77
2023-06-19T04:28:13.287Z,16.84
2023-06-19T04:30:40.649Z,16.91
2023-06-19T04:33:09.787Z,17.03
2023-06-19T04:35:41.549Z,17.08
2023-06-19T04:38:09.777Z,17.12
2023-06-19T04:40:36.748Z,17.15
2023-06-19T04:43:06.946Z,17.20
2023-06-19T04:45:34.082Z,17.32
2023-06-19T04:48:04.261Z,17.44
2023-06-19T04:50:31.393Z,17.64
2023-06-19T04:52:58.530Z,17.80
2023-06-19T04:55:26.714Z,17.88
2023-06-19T04:57:53.960Z,17.86
2023-06-19T05:00:21.224Z,17.93
2023-06-19T05:02:48.881Z,17.99
2023-06-19T05:05:16.171Z,18.08
2023-06-19T05:07:43.586Z,18.11
2023-06-19T05:10:11.540Z,18.12
2023-06-19T05:12:38.782Z,18.19
2023-06-19T05:15:06.243Z,18.30
2023-06-19T05:17:33.497Z,18.45
2023-06-19T05:20:00.500Z,18.47
2023-06-19T05:22:28.296Z,18.46
2023-06-19T05:24:55.183Z,18.42
2023-06-19T05:27:22.346Z,18.41
2023-06-19T05:29:49.251Z,18.40
2023-06-19T05:32:16.537Z,18.38
2023-06-19T05:34:43.496Z,18.35
2023-06-19T05:37:10.952Z,18.33
2023-06-19T05:39:37.889Z,18.42
2023-06-19T05:42:05.334Z,18.55
2023-06-19T05:44:32.299Z,18.71
2023-06-19T05:46:59.491Z,18.83
2023-06-19T05:49:26.428Z,18.97
2023-06-19T05:52:02.177Z,19.10
2023-06-19T05:54:29.227Z,19.29
2023-06-19T05:56:56.386Z,19.36
2023-06-19T05:59:23.263Z,19.49
2023-06-19T06:01:51.978Z,19.61
2023-06-19T06:04:19.659Z,19.74
2023-06-19T06:06:46.890Z,19.92
2023-06-19T06:09:14.373Z,20.04
2023-06-19T06:11:41.580Z,20.12
2023-06-19T06:14:10.736Z,20.24
2023-06-19T06:16:39.789Z,20.36
2023-06-19T06:19:07.677Z,20.49
2023-06-19T06:21:35.990Z,20.62
2023-06-19T06:24:03.800Z,20.72
2023-06-19T06:26:31.174Z,20.79
2023-06-19T06:28:58.043Z,20.90
2023-06-19T06:31:25.291Z,21.01
2023-06-19T06:33:52.126Z,21.08
2023-06-19T06:36:33.780Z,21.20
2023-06-19T06:39:02.766Z,21.37
2023-06-19T06:41:33.923Z,21.47
2023-06-19T06:44:02.252Z,21.47
2023-06-19T06:46:29.455Z,21.53
2023-06-19T06:48:56.404Z,21.66
2023-06-19T06:51:23.814Z,21.77
2023-06-19T06:53:51.877Z,21.88
2023-06-19T06:56:19.089Z,21.98
2023-06-19T06:58:48.040Z,22.09
2023-06-19T07:01:15.297Z,22.10
2023-06-19T07:03:42.259Z,22.31
2023-06-19T07:06:09.455Z,22.39
2023-06-19T07:08:36.521Z,22.50
2023-06-19T07:11:04.541Z,22.70
2023-06-19T07:13:31.462Z,22.82
2023-06-19T07:15:59.513Z,22.83
2023-06-19T07:18:26.314Z,22.95
2023-06-19T07:20:53.883Z,23.04
2023-06-19T07:23:20.764Z,23.10
2023-06-19T07:25:48.411Z,23.21
2023-06-19T07:28:16.486Z,23.32
2023-06-19T07:30:44.778Z,23.40
2023-06-19T07:33:11.640Z,23.51
2023-06-19T07:35:38.838Z,23.64
2023-06-19T07:38:05.749Z,23.71
2023-06-19T07:40:33.200Z,23.86
2023-06-19T07:43:00.053Z,24.06
2023-06-19T07:45:27.632Z,24.29
2023-06-19T07:47:58.669Z,24.23
2023-06-19T07:50:27.870Z,24.33
2023-06-19T07:52:55.298Z,24.43
2023-06-19T07:55:22.532Z,24.51
2023-06-19T07:57:49.411Z,24.41
2023-06-19T08:00:17.123Z,24.55
2023-06-19T08:02:44.148Z,24.61
2023-06-19T08:05:11.988Z,24.75
2023-06-19T08:07:39.516Z,24.95
2023-06-19T08:10:13.096Z,25.10
2023-06-19T08:12:43.552Z,25.31
2023-06-19T08:15:12.112Z,25.53
2023-06-19T08:17:39.285Z,25.70
2023-06-19T08:20:08.149Z,25.89
2023-06-19T08:22:35.018Z,26.03
2023-06-19T08:25:02.841Z,26.16
2023-06-19T08:27:29.817Z,26.13
2023-06-19T08:29:57.106Z,26.14
2023-06-19T08:32:24.097Z,26.19
2023-06-19T08:34:51.317Z,26.03
2023-06-19T08:37:19.599Z,25.89
2023-06-19T08:39:46.781Z,25.80
2023-06-19T08:42:13.877Z,25.75
2023-06-19T08:44:41.160Z,25.76
2023-06-19T08:47:08.326Z,25.81
2023-06-19T08:49:36.163Z,25.99
2023-06-19T08:52:04.923Z,26.20
2023-06-19T08:54:32.678Z,26.39
2023-06-19T08:57:04.103Z,26.38
2023-06-19T08:59:33.073Z,26.49
2023-06-19T09:02:00.200Z,26.65
2023-06-19T09:04:28.670Z,26.75
2023-06-19T09:07:00.726Z,26.82
2023-06-19T09:09:28.605Z,26.91
2023-06-19T09:12:00.433Z,27.04
2023-06-19T09:14:40.870Z,27.24
2023-06-19T09:17:12.397Z,27.32
2023-06-19T09:19:48.823Z,27.63
2023-06-19T09:22:19.799Z,27.52
2023-06-19T09:24:47.204Z,27.70
2023-06-19T09:27:15.069Z,27.69
2023-06-19T09:29:43.411Z,27.71
2023-06-19T09:32:23.562Z,27.84
2023-06-19T09:34:52.504Z,28.17
2023-06-19T09:37:27.680Z,28.32
2023-06-19T09:40:00.253Z,28.52
2023-06-19T09:42:33.285Z,28.55
2023-06-19T09:45:05.566Z,28.53
2023-06-19T09:47:34.764Z,28.42
2023-06-19T09:50:02.920Z,28.54
2023-06-19T09:52:29.863Z,28.48
2023-06-19T09:54:58.991Z,28.08
2023-06-19T09:57:25.945Z,28.04
2023-06-19T09:59:57.850Z,28.08
2023-06-19T10:02:28.470Z,28.36
2023-06-19T10:04:57.321Z,28.37
2023-06-19T10:07:29.027Z,28.33
2023-06-19T10:10:00.478Z,28.75
2023-06-19T10:12:44.608Z,29.05
2023-06-19T10:15:24.852Z,29.21
2023-06-19T10:18:17.805Z,29.46
2023-06-19T10:20:47.759Z,29.49
2023-06-19T10:23:21.020Z,29.69
2023-06-19T10:25:59.399Z,29.18
2023-06-19T10:28:33.541Z,29.12
2023-06-19T10:31:04.254Z,29.32
2023-06-19T10:33:37.982Z,29.59
2023-06-19T10:36:19.898Z,29.89
2023-06-19T10:38:50.643Z,30.09
2023-06-19T10:41:28.785Z,30.48
2023-06-19T10:44:05.122Z,30.72
2023-06-19T10:46:36.947Z,30.67
2023-06-19T10:49:05.642Z,30.72
2023-06-19T10:51:36.540Z,30.79
2023-06-19T10:54:03.947Z,31.01
2023-06-19T10:56:31.058Z,31.06
2023-06-19T10:59:02.474Z,31.16
2023-06-19T11:01:50.110Z,31.20
2023-06-19T11:04:17.325Z,31.36
2023-06-19T11:06:47.009Z,31.32
2023-06-19T11:09:14.795Z,31.46
2023-06-19T11:11:44.994Z,31.54
2023-06-19T11:14:16.543Z,31.77
2023-06-19T11:16:49.230Z,31.63
2023-06-19T11:19:18.825Z,31.59
2023-06-19T11:21:51.231Z,30.99
2023-06-19T11:24:19.461Z,31.01
2023-06-19T11:26:52.682Z,31.21
2023-06-19T11:29:23.144Z,31.22
2023-06-19T11:31:51.246Z,31.01
2023-06-19T11:34:21.768Z,30.51
2023-06-19T11:36:51.605Z,30.65
2023-06-19T11:39:19.056Z,30.46
2023-06-19T11:41:46.603Z,30.26
2023-06-19T11:44:13.704Z,30.16
2023-06-19T11:46:40.901Z,30.03
2023-06-19T11:49:15.925Z,29.94
2023-06-19T11:51:43.184Z,30.25
2023-06-19T11:54:11.688Z,30.11
2023-06-19T11:56:39.969Z,30.00
2023-06-19T11:59:07.363Z,29.82
2023-06-19T12:01:35.766Z,29.61
2023-06-19T12:04:06.528Z,29.53
2023-06-19T12:06:36.564Z,29.64
2023-06-19T12:09:05.878Z,29.78
2023-06-19T12:11:33.202Z,29.49
2023-06-19T12:14:00.167Z,30.10
2023-06-19T12:16:28.795Z,30.56
2023-06-19T12:18:55.725Z,30.18
2023-06-19T12:21:34.909Z,30.07
2023-06-19T12:24:05.559Z,29.93
2023-06-19T12:26:37.958Z,29.71
2023-06-19T12:29:05.741Z,29.59
2023-06-19T12:31:33.468Z,29.57
2023-06-19T12:34:01.618Z,29.87
2023-06-19T12:36:34.077Z,29.89
2023-06-19T12:39:01.757Z,29.77
2023-06-19T12:41:28.924Z,29.65
2023-06-19T12:43:55.857Z,29.48
2023-06-19T12:46:23.140Z,29.42
2023-06-19T12:48:51.712Z,29.36
2023-06-19T12:51:19.904Z,29.28
2023-06-19T12:53:46.857Z,29.22
2023-06-19T12:56:14.534Z,29.09
2023-06-19T12:58:41.464Z,29.05
2023-06-19T13:01:08.665Z,29.03
2023-06-19T13:03:35.621Z,28.98
2023-06-19T13:06:02.902Z,29.02
2023-06-19T13:08:29.753Z,29.00
2023-06-19T13:10:56.964Z,28.94
2023-06-19T13:13:23.825Z,29.01
2023-06-19T13:15:51.234Z,29.30
2023-06-19T13:18:19.312Z,29.37
2023-06-19T13:20:49.131Z,29.31
2023-06-19T13:23:16.155Z,30.12
2023-06-19T13:25:43.334Z,30.79
2023-06-19T13:28:10.213Z,31.24
2023-06-19T13:30:37.588Z,31.75
2023-06-19T13:33:05.475Z,32.23
2023-06-19T13:35:32.965Z,32.45
2023-06-19T13:38:00.747Z,32.73
2023-06-19T13:40:27.942Z,32.94
2023-06-19T13:42:55.786Z,33.16
2023-06-19T13:45:22.962Z,33.52
2023-06-19T13:47:49.829Z,33.89
2023-06-19T13:50:19.397Z,33.75
2023-06-19T13:52:47.196Z,33.89
2023-06-19T13:55:18.340Z,33.91
2023-06-19T13:57:45.281Z,33.72
2023-06-19T14:00:13.339Z,33.36
2023-06-19T14:02:40.342Z,33.63
2023-06-19T14:05:09.671Z,33.60
2023-06-19T14:07:36.992Z,33.32
2023-06-19T14:10:06.012Z,33.00
2023-06-19T14:12:32.879Z,33.12
2023-06-19T14:15:00.257Z,33.06
2023-06-19T14:17:27.555Z,32.59
2023-06-19T14:19:56.643Z,32.59
2023-06-19T14:22:23.590Z,33.15
2023-06-19T14:24:51.146Z,33.47
2023-06-19T14:27:17.970Z,33.78
2023-06-19T14:29:45.603Z,34.09
2023-06-19T14:32:13.354Z,34.31
2023-06-19T14:34:40.488Z,34.45
2023-06-19T14:37:07.392Z,34.56
2023-06-19T14:39:34.529Z,34.78
2023-06-19T14:42:01.465Z,34.70
2023-06-19T14:44:28.592Z,34.46
2023-06-19T14:46:55.503Z,34.03
2023-06-19T14:49:22.789Z,33.40
2023-06-19T14:51:49.623Z,32.84
2023-06-19T14:54:18.713Z,32.35
2023-06-19T14:56:49.097Z,31.68
2023-06-19T14:59:16.743Z,31.89
2023-06-19T15:01:43.673Z,32.79
2023-06-19T15:04:10.993Z,33.37
2023-06-19T15:06:38.083Z,33.87
2023-06-19T15:09:05.685Z,34.05
2023-06-19T15:11:33.706Z,33.50
2023-06-19T15:14:01.041Z,33.53
2023-06-19T15:16:27.951Z,33.52
2023-06-19T15:18:55.590Z,33.77
2023-06-19T15:21:22.610Z,33.85
2023-06-19T15:23:52.545Z,34.02
2023-06-19T15:26:19.404Z,34.46
2023-06-19T15:28:48.417Z,34.23
2023-06-19T15:31:17.136Z,34.46
2023-06-19T15:33:44.576Z,34.49
2023-06-19T15:36:11.485Z,34.65
2023-06-19T15:38:38.808Z,34.80
2023-06-19T15:41:05.665Z,34.57
2023-06-19T15:43:32.929Z,34.40
2023-06-19T15:45:59.954Z,34.49
2023-06-19T15:48:27.225Z,34.53
2023-06-19T15:50:54.262Z,34.48
2023-06-19T15:53:21.483Z,34.23
2023-06-19T15:55:48.473Z,33.88
2023-06-19T15:58:15.732Z,32.74
2023-06-19T16:00:42.631Z,32.51
2023-06-19T16:03:09.973Z,32.03
2023-06-19T16:05:37.105Z,32.28
2023-06-19T16:08:04.258Z,32.65
2023-06-19T16:10:31.112Z,32.76
2023-06-19T16:12:58.297Z,33.00
2023-06-19T16:15:29.028Z,33.19
2023-06-19T16:17:56.653Z,33.25
2023-06-19T16:20:24.427Z,33.21
2023-06-19T16:22:52.298Z,33.14
2023-06-19T16:25:19.492Z,33.14
2023-06-19T16:27:46.774Z,33.28
2023-06-19T16:30:13.797Z,33.17
2023-06-19T16:32:41.181Z,33.34
2023-06-19T16:35:08.687Z,33.41
2023-06-19T16:37:36.469Z,33.46
2023-06-19T16:40:06.223Z,33.42
2023-06-19T16:42:33.441Z,33.32
2023-06-19T16:45:00.442Z,33.32
2023-06-19T16:47:28.277Z,33.23
2023-06-19T16:49:55.143Z,33.05
2023-06-19T16:52:23.380Z,32.95
2023-06-19T16:54:50.404Z,32.86
2023-06-19T16:57:17.542Z,32.47
2023-06-19T16:59:44.453Z,32.25
2023-06-19T17:02:11.849Z,31.80
2023-06-19T17:04:39.929Z,31.43
2023-06-19T17:07:07.121Z,31.53
2023-06-19T17:09:33.956Z,31.50
2023-06-19T17:12:01.048Z,31.32
2023-06-19T17:14:27.979Z,31.17
2023-06-19T17:16:55.968Z,31.06
2023-06-19T17:19:23.095Z,30.84
2023-06-19T17:21:50.390Z,30.41
2023-06-19T17:24:18.705Z,30.32
2023-06-19T17:26:46.361Z,30.16
2023-06-19T17:29:13.254Z,29.85
2023-06-19T17:31:41.014Z,29.64
2023-06-19T17:34:07.925Z,29.25
2023-06-19T17:36:35.089Z,29.03
2023-06-19T17:39:01.986Z,28.94
2023-06-19T17:41:29.249Z,28.83
2023-06-19T17:43:56.136Z,28.72
2023-06-19T17:46:23.419Z,28.66
2023-06-19T17:48:50.348Z,28.53
2023-06-19T17:51:17.492Z,28.43
2023-06-19T17:53:44.806Z,28.33
2023-06-19T17:56:11.976Z,28.22
2023-06-19T17:58:38.927Z,28.11
2023-06-19T18:01:06.060Z,28.03
2023-06-19T18:03:33.074Z,27.90
2023-06-19T18:06:00.297Z,27.76
2023-06-19T18:08:27.198Z,27.67
2023-06-19T18:10:54.365Z,27.56
2023-06-19T18:13:21.235Z,27.43
2023-06-19T18:16:02.486Z,27.30
2023-06-19T18:18:35.944Z,27.16
2023-06-19T18:21:03.567Z,27.03
2023-06-19T18:23:30.589Z,26.90
2023-06-19T18:25:58.003Z,26.78
2023-06-19T18:28:24.930Z,26.65
2023-06-19T18:30:52.120Z,26.54
2023-06-19T18:33:19.072Z,26.42
2023-06-19T18:35:46.304Z,26.30
2023-06-19T18:38:14.194Z,26.18
2023-06-19T18:40:42.826Z,26.07
2023-06-19T18:43:09.766Z,25.95
2023-06-19T18:45:37.465Z,25.82
2023-06-19T18:48:04.513Z,25.70
2023-06-19T18:50:32.200Z,25.55
2023-06-19T18:52:59.368Z,25.43
2023-06-19T18:55:26.594Z,25.35
2023-06-19T18:57:53.671Z,25.23
2023-06-19T19:00:21.158Z,25.08
2023-06-19T19:02:48.395Z,25.00
2023-06-19T19:05:15.867Z,24.90
2023-06-19T19:07:42.787Z,24.77
2023-06-19T19:10:10.911Z,24.69
2023-06-19T19:12:38.181Z,24.62
2023-06-19T19:15:06.604Z,24.50
2023-06-19T19:17:34.117Z,24.42
2023-06-19T19:20:04.849Z,24.30
2023-06-19T19:22:31.887Z,24.22
2023-06-19T19:24:59.106Z,24.13
2023-06-19T19:27:26.628Z,24.08
2023-06-19T19:29:53.977Z,23.98
2023-06-19T19:32:22.425Z,23.92
2023-06-19T19:34:49.850Z,23.85
2023-06-19T19:37:16.793Z,23.79
2023-06-19T19:39:44.397Z,23.72
2023-06-19T19:42:11.256Z,23.65
2023-06-19T19:44:38.418Z,23.60
2023-06-19T19:47:05.923Z,23.55
2023-06-19T19:49:33.855Z,23.48
2023-06-19T19:52:00.757Z,23.43
2023-06-19T19:54:27.929Z,23.37
2023-06-19T19:56:55.509Z,23.33
2023-06-19T19:59:23.114Z,23.27
2023-06-19T20:01:50.503Z,23.23
2023-06-19T20:04:17.765Z,23.20
2023-06-19T20:06:44.853Z,23.19
2023-06-19T20:09:13.220Z,23.14
2023-06-19T20:11:40.364Z,23.09
2023-06-19T20:14:08.488Z,23.06
2023-06-19T20:16:36.008Z,22.99
2023-06-19T20:19:03.200Z,22.90
2023-06-19T20:21:30.271Z,22.87
2023-06-19T20:23:57.397Z,22.79
2023-06-19T20:26:24.408Z,22.73
2023-06-19T20:28:51.725Z,22.67
2023-06-19T20:31:18.726Z,22.65
2023-06-19T20:33:45.913Z,22.59
2023-06-19T20:36:12.769Z,22.56
2023-06-19T20:38:39.903Z,22.48
2023-06-19T20:41:06.829Z,22.42
2023-06-19T20:43:33.918Z,22.36
2023-06-19T20:46:01.756Z,22.31
2023-06-19T20:48:29.796Z,22.24
2023-06-19T20:50:57.680Z,22.22
2023-06-19T20:53:27.276Z,22.16
2023-06-19T20:55:54.227Z,22.09
2023-06-19T20:58:28.127Z,22.04
2023-06-19T21:00:55.933Z,21.99
2023-06-19T21:03:24.455Z,21.91
2023-06-19T21:05:51.560Z,21.88
2023-06-19T21:08:18.790Z,21.86
2023-06-19T21:10:45.745Z,21.82
2023-06-19T21:13:22.001Z,21.79
2023-06-19T21:15:50.453Z,21.73
2023-06-19T21:18:18.870Z,21.70
2023-06-19T21:20:45.755Z,21.67
2023-06-19T21:23:13.224Z,21.60
2023-06-19T21:25:41.006Z,21.58
2023-06-19T21:28:08.218Z,21.54
2023-06-19T21:30:35.595Z,21.52
2023-06-19T21:33:02.933Z,21.45
2023-06-19T21:35:29.887Z,21.40
2023-06-19T21:37:57.123Z,21.34
2023-06-19T21:40:24.439Z,21.30
2023-06-19T21:42:51.879Z,21.27
2023-06-19T21:45:18.846Z,21.24
2023-06-19T21:47:48.222Z,21.20
2023-06-19T21:50:20.679Z,21.18
2023-06-19T21:52:48.000Z,21.12
2023-06-19T21:55:15.288Z,21.06
2023-06-19T22:00:14.173Z,20.99
2023-06-19T22:02:41.613Z,20.94
2023-06-19T22:05:08.705Z,20.91
2023-06-19T22:07:36.030Z,20.88
2023-06-19T22:10:03.846Z,20.84
2023-06-19T22:12:31.105Z,20.84
2023-06-19T22:14:58.360Z,20.85
2023-06-19T22:17:25.608Z,20.82
2023-06-19T22:19:52.616Z,20.77
2023-06-19T22:22:19.844Z,20.72
2023-06-19T22:24:46.793Z,20.72
2023-06-19T22:27:13.991Z,20.72
2023-06-19T22:29:40.827Z,20.68
2023-06-19T22:32:08.990Z,20.62
2023-06-19T22:34:36.196Z,20.58
2023-06-19T22:37:04.115Z,20.54
2023-06-19T22:39:31.989Z,20.51
2023-06-19T22:41:59.634Z,20.48
2023-06-19T22:44:26.596Z,20.41
2023-06-19T22:46:54.842Z,20.35
2023-06-19T22:49:21.969Z,20.33
2023-06-19T22:51:49.100Z,20.28
2023-06-19T22:54:16.002Z,20.25
2023-06-19T22:56:43.234Z,20.20
2023-06-19T22:59:10.189Z,20.17
2023-06-19T23:01:38.152Z,20.19
2023-06-19T23:04:07.962Z,20.17
2023-06-19T23:06:43.322Z,20.16
2023-06-19T23:09:13.659Z,20.14
2023-06-19T23:11:41.362Z,20.10
2023-06-19T23:14:08.464Z,20.10
2023-06-19T23:16:35.640Z,20.08
2023-06-19T23:19:02.582Z,20.06
2023-06-19T23:21:32.557Z,20.00
2023-06-19T23:23:59.707Z,19.98
2023-06-19T23:26:26.934Z,19.93
2023-06-19T23:28:55.325Z,19.89
2023-06-19T23:31:22.670Z,19.86
2023-06-19T23:33:55.232Z,19.82
2023-06-19T23:36:22.386Z,19.78
2023-06-19T23:38:52.584Z,19.75
2023-06-19T23:41:20.482Z,19.71
2023-06-19T23:43:48.316Z,19.68
2023-06-19T23:46:16.770Z,19.64
2023-06-19T23:48:43.753Z,19.62
2023-06-19T23:51:11.090Z,19.59
2023-06-19T23:53:38.114Z,19.55
2023-06-19T23:56:05.463Z,19.51
2023-06-19T23:58:32.372Z,19.47
